Time;durP1;ratioP1;P1;durP2;ratioP2;P2;SDS_P1;SDS_P2;PMS_P1;PMS_P2;Temp;Humidity;BMP_temperature;BMP_pressure;BME280_temperature;BME280_humidity;BME280_pressure;Samples;Min_cycle;Max_cycle;Signal;HPM_P1;HPM_P2
2022/04/03 00:01:51;;;;;;;3.20;1.20;;;11.70;75.20;;;;;;4988074;28;20216;-76
2022/04/03 00:04:19;;;;;;;2.37;1.37;;;11.70;75.50;;;;;;4990617;28;20205;-75
2022/04/03 00:06:47;;;;;;;6.20;1.43;;;11.70;75.60;;;;;;4989215;28;20224;-76
2022/04/03 00:09:17;;;;;;;3.20;1.53;;;11.60;75.80;;;;;;4985021;28;20211;-78
2022/04/03 00:11:46;;;;;;;7.83;1.90;;;11.50;76.10;;;;;;4987140;28;20212;-75
2022/04/03 00:14:14;;;;;;;6.43;1.57;;;11.50;76.10;;;;;;4987168;28;20212;-75
2022/04/03 00:16:42;;;;;;;5.37;1.80;;;11.40;76.20;;;;;;4989181;28;20193;-76
2022/04/03 00:19:11;;;;;;;3.27;1.43;;;11.40;76.20;;;;;;4987756;28;20200;-76
2022/04/03 00:21:39;;;;;;;4.50;1.70;;;11.40;76.30;;;;;;4986683;28;20229;-77
2022/04/03 00:24:07;;;;;;;2.93;1.57;;;11.40;76.60;;;;;;4986407;28;20209;-76
2022/04/03 00:26:37;;;;;;;2.87;1.33;;;11.40;76.60;;;;;;4988282;28;20213;-75
2022/04/03 00:29:06;;;;;;;4.83;1.67;;;11.40;76.50;;;;;;4987397;28;20201;-75
2022/04/03 00:31:34;;;;;;;3.20;1.50;;;11.30;76.60;;;;;;4986126;28;20227;-75
2022/04/03 00:34:02;;;;;;;3.70;2.07;;;11.30;76.50;;;;;;4987985;28;20200;-76
2022/04/03 00:36:31;;;;;;;4.93;1.50;;;11.20;76.50;;;;;;4988359;28;20200;-77
2022/04/03 00:38:59;;;;;;;7.30;1.70;;;11.20;76.30;;;;;;4986069;28;20236;-76
2022/04/03 00:41:27;;;;;;;4.97;1.93;;;11.20;76.10;;;;;;4985790;28;20201;-76
2022/04/03 00:43:58;;;;;;;4.50;1.40;;;11.20;76.00;;;;;;4987710;28;20707;-76
2022/04/03 00:46:29;;;;;;;3.03;1.50;;;11.10;75.30;;;;;;4988744;28;20204;-75
2022/04/03 00:49:00;;;;;;;3.23;1.30;;;11.10;75.00;;;;;;4986387;28;20213;-76
2022/04/03 00:51:29;;;;;;;2.77;1.20;;;11.00;74.70;;;;;;4986424;28;20211;-76
2022/04/03 00:53:58;;;;;;;3.60;1.83;;;11.00;74.30;;;;;;4986168;28;20205;-74
2022/04/03 00:56:26;;;;;;;4.07;1.60;;;10.90;74.00;;;;;;4988461;28;20602;-77
2022/04/03 00:58:55;;;;;;;2.67;1.40;;;10.90;73.40;;;;;;4987963;28;20208;-75
2022/04/03 01:01:25;;;;;;;4.77;1.60;;;10.80;73.30;;;;;;4991692;28;20197;-76
2022/04/03 01:03:54;;;;;;;2.50;1.20;;;10.80;73.40;;;;;;4990163;28;20197;-75
2022/04/03 01:06:22;;;;;;;3.10;1.20;;;10.80;73.60;;;;;;4990598;28;20473;-76
2022/04/03 01:08:50;;;;;;;2.97;1.33;;;10.70;73.50;;;;;;4992413;28;20193;-75
2022/04/03 01:11:22;;;;;;;2.03;1.20;;;10.80;73.50;;;;;;4993073;28;20283;-76
2022/04/03 01:13:52;;;;;;;2.13;1.30;;;10.70;73.50;;;;;;4990429;28;20199;-78
2022/04/03 01:16:20;;;;;;;2.97;1.27;;;10.60;73.50;;;;;;4993806;28;20193;-77
2022/04/03 01:18:51;;;;;;;3.27;1.23;;;10.60;73.80;;;;;;4988444;28;20197;-77
2022/04/03 01:21:19;;;;;;;4.00;1.40;;;10.50;73.70;;;;;;4987479;28;20236;-76
2022/04/03 01:23:48;;;;;;;2.67;1.20;;;10.40;73.90;;;;;;4986553;28;20734;-78
2022/04/03 01:26:18;;;;;;;3.03;1.50;;;10.40;73.90;;;;;;4989113;28;20208;-75
2022/04/03 01:28:46;;;;;;;2.63;1.47;;;10.40;74.20;;;;;;4989704;28;20221;-76
2022/04/03 01:31:15;;;;;;;3.13;1.33;;;10.30;74.40;;;;;;4985693;28;20962;-77
2022/04/03 01:33:43;;;;;;;2.80;1.20;;;10.30;74.50;;;;;;4985722;28;20774;-77
2022/04/03 01:36:13;;;;;;;2.43;1.40;;;10.30;74.50;;;;;;4986835;28;20205;-75
2022/04/03 01:38:41;;;;;;;3.57;1.70;;;10.20;75.00;;;;;;4986508;28;20185;-76
2022/04/03 01:41:09;;;;;;;2.97;1.27;;;10.10;75.10;;;;;;4985425;28;20201;-77
2022/04/03 01:43:39;;;;;;;4.00;1.60;;;10.10;75.40;;;;;;4983094;28;21156;-76
2022/04/03 01:46:08;;;;;;;3.77;1.53;;;10.00;75.90;;;;;;4985007;28;20987;-75
2022/04/03 01:48:36;;;;;;;2.47;1.57;;;10.00;76.10;;;;;;4984558;28;20214;-76
2022/04/03 01:51:04;;;;;;;4.63;1.80;;;10.00;76.00;;;;;;4983977;28;20215;-76
2022/04/03 01:53:33;;;;;;;2.27;1.33;;;9.90;76.20;;;;;;4984232;28;20201;-76
2022/04/03 01:56:03;;;;;;;3.00;1.43;;;9.90;76.30;;;;;;4985561;28;20193;-76
2022/04/03 01:58:32;;;;;;;2.83;1.60;;;9.90;76.30;;;;;;4986618;28;20659;-75
2022/04/03 02:01:04;;;;;;;3.07;1.40;;;9.80;76.50;;;;;;4984803;28;20200;-76
2022/04/03 02:03:33;;;;;;;2.33;1.40;;;9.80;76.50;;;;;;4985427;28;20909;-76
2022/04/03 02:06:01;;;;;;;3.27;1.67;;;9.80;76.60;;;;;;4985583;28;20204;-76
2022/04/03 02:08:29;;;;;;;2.93;1.70;;;9.80;76.60;;;;;;4983807;28;20240;-77
2022/04/03 02:10:58;;;;;;;5.33;1.70;;;9.80;76.80;;;;;;4984501;28;20555;-76
2022/04/03 02:13:26;;;;;;;3.47;1.77;;;9.80;76.60;;;;;;4982106;28;20564;-76
2022/04/03 02:15:55;;;;;;;5.23;1.80;;;9.80;76.50;;;;;;4984031;28;20201;-76
2022/04/03 02:18:25;;;;;;;4.77;2.33;;;9.80;76.30;;;;;;4982478;28;20209;-76
2022/04/03 02:20:53;;;;;;;4.17;1.43;;;9.80;76.60;;;;;;4984686;28;20233;-76
2022/04/03 02:23:23;;;;;;;4.10;1.80;;;9.80;76.20;;;;;;4982772;28;20189;-76
2022/04/03 02:25:52;;;;;;;5.17;1.90;;;9.80;76.10;;;;;;4983387;28;20646;-76
2022/04/03 02:28:21;;;;;;;3.90;2.07;;;9.80;75.80;;;;;;4984951;28;20946;-76
2022/04/03 02:30:50;;;;;;;3.23;1.40;;;9.80;75.80;;;;;;4985369;28;20197;-77
2022/04/03 02:33:19;;;;;;;4.53;1.70;;;9.80;75.60;;;;;;4985632;28;20851;-76
2022/04/03 02:35:50;;;;;;;4.37;1.50;;;9.80;75.60;;;;;;4984548;28;20691;-75
2022/04/03 02:38:18;;;;;;;3.43;1.50;;;9.80;75.70;;;;;;4985372;28;20193;-76
2022/04/03 02:40:47;;;;;;;6.10;1.90;;;9.70;75.80;;;;;;4984922;28;20292;-75
2022/04/03 02:43:15;;;;;;;4.13;1.90;;;9.70;75.80;;;;;;4982408;28;20205;-75
2022/04/03 02:45:44;;;;;;;3.47;1.53;;;9.70;75.80;;;;;;4985568;28;20773;-76
2022/04/03 02:48:12;;;;;;;3.67;1.60;;;9.70;75.90;;;;;;4985162;28;20220;-76
2022/04/03 02:50:41;;;;;;;5.13;2.03;;;9.70;76.10;;;;;;4985999;28;20196;-76
2022/04/03 02:53:11;;;;;;;4.07;1.80;;;9.60;76.30;;;;;;4985460;28;20642;-76
2022/04/03 02:55:39;;;;;;;4.13;1.50;;;9.60;76.30;;;;;;4985855;28;20219;-76
2022/04/03 02:58:08;;;;;;;4.50;1.73;;;9.60;76.60;;;;;;4983937;28;20674;-76
2022/04/03 03:00:36;;;;;;;5.40;2.00;;;9.60;76.80;;;;;;4985943;28;20217;-77
2022/04/03 03:03:07;;;;;;;3.37;2.17;;;9.60;76.90;;;;;;4985911;28;20197;-76
2022/04/03 03:05:35;;;;;;;4.17;2.00;;;9.50;77.00;;;;;;4984095;28;20227;-76
2022/04/03 03:08:05;;;;;;;3.83;1.70;;;9.60;77.10;;;;;;4985160;28;20222;-76
2022/04/03 03:10:34;;;;;;;2.63;1.63;;;9.50;77.20;;;;;;4985630;28;20204;-76
2022/04/03 03:13:03;;;;;;;4.77;2.10;;;9.50;77.20;;;;;;4984139;28;20204;-77
2022/04/03 03:15:31;;;;;;;3.73;2.20;;;9.50;77.40;;;;;;4985864;28;20212;-76
2022/04/03 03:18:00;;;;;;;4.60;2.17;;;9.50;77.30;;;;;;4985166;28;20189;-76
2022/04/03 03:20:28;;;;;;;4.37;2.20;;;9.50;77.30;;;;;;4986245;28;20232;-77
2022/04/03 03:22:57;;;;;;;5.40;2.40;;;9.50;77.50;;;;;;4987419;28;20212;-77
2022/04/03 03:25:28;;;;;;;3.57;1.70;;;9.40;77.40;;;;;;4987517;28;20212;-78
2022/04/03 03:27:58;;;;;;;3.57;1.93;;;9.40;77.60;;;;;;4988489;28;20205;-76
2022/04/03 03:30:26;;;;;;;3.43;2.13;;;9.40;77.50;;;;;;4988801;28;20196;-76
2022/04/03 03:32:55;;;;;;;5.73;2.00;;;9.40;77.70;;;;;;4987631;28;20200;-76
2022/04/03 03:35:23;;;;;;;4.67;2.30;;;9.30;77.80;;;;;;4986897;28;20450;-76
2022/04/03 03:37:52;;;;;;;6.90;2.63;;;9.30;78.00;;;;;;4987711;28;20203;-76
2022/04/03 03:40:20;;;;;;;3.60;1.90;;;9.30;78.00;;;;;;4985540;28;20201;-76
2022/04/03 03:42:55;;;;;;;4.57;2.37;;;9.20;78.10;;;;;;4984108;28;20207;-76
2022/04/03 03:45:26;;;;;;;4.80;2.17;;;9.20;78.30;;;;;;4986570;28;20200;-75
2022/04/03 03:47:57;;;;;;;4.50;2.00;;;9.20;78.10;;;;;;4986476;28;20327;-76
2022/04/03 03:50:25;;;;;;;9.03;3.00;;;9.20;78.10;;;;;;4986302;28;20666;-76
2022/04/03 03:52:54;;;;;;;4.57;2.23;;;9.20;78.30;;;;;;4986034;28;20203;-76
2022/04/03 03:55:22;;;;;;;4.43;2.00;;;9.20;78.40;;;;;;4986896;28;20202;-76
2022/04/03 03:57:51;;;;;;;6.17;2.20;;;9.10;79.30;;;;;;4984491;28;20696;-76
2022/04/03 04:00:20;;;;;;;5.70;2.17;;;9.10;78.40;;;;;;4986794;28;20197;-77
2022/04/03 04:02:49;;;;;;;6.20;2.70;;;9.10;78.60;;;;;;4987296;28;20214;-75
2022/04/03 04:05:18;;;;;;;4.63;2.67;;;9.10;78.50;;;;;;4985976;28;20220;-75
2022/04/03 04:07:47;;;;;;;4.47;2.83;;;9.10;78.60;;;;;;4986212;28;20208;-77
2022/04/03 04:10:18;;;;;;;6.13;3.00;;;9.10;78.80;;;;;;4987492;28;20284;-77
2022/04/03 04:12:47;;;;;;;5.90;1.93;;;9.00;78.80;;;;;;4984451;28;20683;-77
2022/04/03 04:15:16;;;;;;;4.17;2.47;;;9.00;78.80;;;;;;4986983;28;20193;-76
2022/04/03 04:17:46;;;;;;;3.93;2.10;;;8.90;78.70;;;;;;4986959;28;20204;-75
2022/04/03 04:20:17;;;;;;;4.47;2.50;;;8.90;78.70;;;;;;4986262;28;20208;-76
2022/04/03 04:22:47;;;;;;;3.70;2.20;;;8.90;78.60;;;;;;4987014;28;20196;-77
2022/04/03 04:25:17;;;;;;;4.87;2.50;;;8.90;78.50;;;;;;4985026;28;20195;-76
2022/04/03 04:27:46;;;;;;;7.37;3.07;;;8.90;78.40;;;;;;4987486;28;20204;-77
2022/04/03 04:30:15;;;;;;;4.83;2.40;;;9.00;78.30;;;;;;4987167;28;20230;-75
2022/04/03 04:32:45;;;;;;;5.50;2.93;;;8.90;78.10;;;;;;4986251;28;20200;-76
2022/04/03 04:35:15;;;;;;;5.03;2.63;;;8.90;78.20;;;;;;4985698;28;20200;-75
2022/04/03 04:37:43;;;;;;;3.73;2.33;;;9.00;78.20;;;;;;4986800;28;20215;-75
2022/04/03 04:40:12;;;;;;;7.40;2.47;;;9.00;78.10;;;;;;4986652;28;20689;-76
2022/04/03 04:42:41;;;;;;;3.77;2.30;;;9.00;78.20;;;;;;4988536;28;20242;-77
2022/04/03 04:45:10;;;;;;;6.50;3.00;;;9.00;78.20;;;;;;4988311;28;20678;-76
2022/04/03 04:47:48;;;;;;;7.67;2.70;;;9.00;78.20;;;;;;4985595;28;20243;-76
2022/04/03 04:50:19;;;;;;;7.07;3.37;;;9.10;78.40;;;;;;4986809;28;20216;-75
2022/04/03 04:52:48;;;;;;;5.50;2.73;;;9.10;78.40;;;;;;4986719;28;20219;-76
2022/04/03 04:55:16;;;;;;;7.07;3.33;;;9.10;78.40;;;;;;4987856;28;20215;-76
2022/04/03 04:57:50;;;;;;;6.27;2.90;;;9.10;78.40;;;;;;4987709;28;20200;-76
2022/04/03 05:00:20;;;;;;;5.43;2.90;;;9.20;78.50;;;;;;4987543;28;20343;-76
2022/04/03 05:02:49;;;;;;;5.10;2.57;;;9.20;78.50;;;;;;4985042;28;20200;-76
2022/04/03 05:05:20;;;;;;;6.23;2.40;;;9.30;78.70;;;;;;4988012;28;20200;-76
2022/04/03 05:07:51;;;;;;;6.60;2.90;;;9.30;78.50;;;;;;4985392;28;20200;-75
2022/04/03 05:10:20;;;;;;;7.37;3.80;;;9.30;78.40;;;;;;4988747;28;20201;-77
2022/04/03 05:12:49;;;;;;;7.07;3.23;;;9.40;78.60;;;;;;4984379;28;20215;-76
2022/04/03 05:15:18;;;;;;;7.40;2.67;;;9.40;78.30;;;;;;4984545;28;20200;-76
2022/04/03 05:17:47;;;;;;;5.73;2.80;;;9.40;78.30;;;;;;4985431;28;20204;-76
2022/04/03 05:20:18;;;;;;;5.43;3.00;;;9.50;79.20;;;;;;4984649;28;20197;-77
2022/04/03 05:22:46;;;;;;;5.33;2.60;;;9.40;78.40;;;;;;4985942;28;20791;-76
2022/04/03 05:25:14;;;;;;;6.17;2.90;;;9.50;78.50;;;;;;4985244;28;20571;-76
2022/04/03 05:27:44;;;;;;;6.97;3.13;;;9.50;78.60;;;;;;4985248;28;20262;-76
2022/04/03 05:30:14;;;;;;;9.73;3.23;;;9.50;78.60;;;;;;4985008;28;20225;-75
2022/04/03 05:32:42;;;;;;;9.23;3.00;;;9.60;78.60;;;;;;4984540;28;20201;-75
2022/04/03 05:35:13;;;;;;;10.40;2.97;;;9.60;78.70;;;;;;4986299;28;20205;-75
2022/04/03 05:37:46;;;;;;;6.17;2.97;;;9.60;78.60;;;;;;4984054;28;20204;-74
2022/04/03 05:40:15;;;;;;;6.43;2.97;;;9.70;78.60;;;;;;4984181;28;20713;-74
2022/04/03 05:42:44;;;;;;;6.47;3.20;;;9.60;78.50;;;;;;4984886;28;20189;-75
2022/04/03 05:45:12;;;;;;;10.70;2.73;;;9.60;78.40;;;;;;4986432;28;20197;-77
2022/04/03 05:47:46;;;;;;;6.20;3.17;;;9.70;78.60;;;;;;4985677;28;20776;-75
2022/04/03 05:50:15;;;;;;;8.17;3.60;;;9.70;78.60;;;;;;4987045;28;20219;-76
2022/04/03 05:52:47;;;;;;;7.57;3.70;;;9.80;78.70;;;;;;4985851;28;20205;-76
2022/04/03 05:55:17;;;;;;;5.77;2.83;;;9.70;78.30;;;;;;4984429;28;20288;-75
2022/04/03 05:57:46;;;;;;;7.07;2.90;;;9.90;78.50;;;;;;4985308;28;20208;-75
2022/04/03 06:00:16;;;;;;;6.60;3.00;;;9.90;78.10;;;;;;4985433;28;20197;-75
2022/04/03 06:02:49;;;;;;;5.17;2.83;;;10.00;77.40;;;;;;4985178;28;20607;-75
2022/04/03 06:05:19;;;;;;;6.90;3.50;;;10.10;77.10;;;;;;4986396;28;20197;-75
2022/04/03 06:07:49;;;;;;;6.30;2.60;;;10.10;77.00;;;;;;4986445;28;20285;-75
2022/04/03 06:10:19;;;;;;;5.83;2.90;;;10.20;76.90;;;;;;4984604;28;20205;-75
2022/04/03 06:12:58;;;;;;;5.03;2.73;;;10.30;76.90;;;;;;4985175;28;20666;-76
2022/04/03 06:15:28;;;;;;;5.43;2.37;;;10.40;76.90;;;;;;4985061;28;20197;-75
2022/04/03 06:17:56;;;;;;;8.77;2.67;;;10.50;76.50;;;;;;4985469;28;20204;-76
2022/04/03 06:20:25;;;;;;;5.33;3.20;;;10.60;75.30;;;;;;4985882;28;20794;-76
2022/04/03 06:22:54;;;;;;;13.97;2.60;;;10.70;74.90;;;;;;4986514;28;20738;-76
2022/04/03 06:25:23;;;;;;;6.83;2.80;;;10.70;74.80;;;;;;4987663;28;20207;-75
2022/04/03 06:27:53;;;;;;;4.70;2.70;;;10.80;74.70;;;;;;4985971;28;20372;-75
2022/04/03 06:30:22;;;;;;;5.73;3.00;;;10.80;73.80;;;;;;4987780;28;20225;-76
2022/04/03 06:32:51;;;;;;;7.67;2.57;;;10.90;73.80;;;;;;4986749;28;20189;-75
2022/04/03 06:35:19;;;;;;;5.30;2.03;;;11.00;73.80;;;;;;4986033;28;20203;-76
2022/04/03 06:37:47;;;;;;;4.63;2.10;;;11.00;73.00;;;;;;4987141;28;20539;-76
2022/04/03 06:40:17;;;;;;;7.80;2.33;;;11.10;73.20;;;;;;4986537;28;20201;-77
2022/04/03 06:42:46;;;;;;;4.33;2.13;;;11.20;72.70;;;;;;4984245;28;20205;-76
2022/04/03 06:45:15;;;;;;;5.83;3.17;;;11.20;72.40;;;;;;4985313;28;20207;-75
2022/04/03 06:47:44;;;;;;;6.53;2.10;;;11.40;71.90;;;;;;4986802;28;20205;-76
2022/04/03 06:50:13;;;;;;;3.40;2.20;;;11.40;71.30;;;;;;4984815;28;20502;-75
2022/04/03 06:52:42;;;;;;;5.23;2.57;;;11.50;70.50;;;;;;4984208;28;20706;-75
2022/04/03 06:55:10;;;;;;;7.60;2.10;;;11.60;70.60;;;;;;4985675;28;20201;-78
2022/04/03 06:57:40;;;;;;;4.83;2.20;;;11.70;70.70;;;;;;4991638;28;20209;-75
2022/04/03 07:00:11;;;;;;;6.20;2.20;;;11.80;70.20;;;;;;4988820;28;20207;-75
2022/04/03 07:02:39;;;;;;;2.97;1.80;;;11.80;69.50;;;;;;4988568;28;20232;-75
2022/04/03 07:05:09;;;;;;;5.60;2.50;;;11.80;68.60;;;;;;4988071;28;20197;-74
2022/04/03 07:07:39;;;;;;;3.47;2.00;;;11.90;68.40;;;;;;4988095;28;20288;-74
2022/04/03 07:10:08;;;;;;;5.73;2.10;;;12.00;67.90;;;;;;4986218;28;20232;-77
2022/04/03 07:12:37;;;;;;;6.10;1.93;;;12.00;67.60;;;;;;4985867;28;20197;-75
2022/04/03 07:15:11;;;;;;;4.70;2.33;;;12.20;67.80;;;;;;4985112;28;20201;-76
2022/04/03 07:17:41;;;;;;;3.53;2.27;;;12.20;67.90;;;;;;4987468;28;20196;-74
2022/04/03 07:20:13;;;;;;;4.63;2.13;;;12.30;67.60;;;;;;4986865;28;20201;-77
2022/04/03 07:22:42;;;;;;;4.63;2.43;;;12.40;67.80;;;;;;4988005;28;20276;-76
2022/04/03 07:25:10;;;;;;;5.27;2.83;;;12.50;67.20;;;;;;4988073;28;20232;-76
2022/04/03 07:27:39;;;;;;;5.20;2.50;;;12.60;67.10;;;;;;4987433;28;20212;-76
2022/04/03 07:30:12;;;;;;;4.80;2.40;;;12.70;67.30;;;;;;4987723;28;20209;-75
2022/04/03 07:32:41;;;;;;;4.77;2.60;;;12.80;67.40;;;;;;4986797;28;20251;-74
2022/04/03 07:35:10;;;;;;;3.63;2.13;;;12.90;66.60;;;;;;4986157;28;20208;-76
2022/04/03 07:37:38;;;;;;;5.60;2.47;;;13.00;65.80;;;;;;4988007;28;20781;-76
2022/04/03 07:40:11;;;;;;;11.53;2.70;;;13.00;65.90;;;;;;4987125;28;20205;-77
2022/04/03 07:42:40;;;;;;;5.27;2.47;;;13.10;65.20;;;;;;4986424;28;20200;-75
2022/04/03 07:45:12;;;;;;;6.53;2.53;;;13.20;65.50;;;;;;4985910;28;20205;-75
2022/04/03 07:47:47;;;;;;;5.40;2.40;;;13.30;64.90;;;;;;4986108;28;20200;-75
2022/04/03 07:50:16;;;;;;;5.87;3.10;;;13.40;63.40;;;;;;4985426;28;20204;-77
2022/04/03 07:52:45;;;;;;;8.53;2.87;;;13.40;63.70;;;;;;4985361;28;20289;-76
2022/04/03 07:55:13;;;;;;;5.20;2.93;;;13.40;64.00;;;;;;4986275;28;20589;-74
2022/04/03 07:57:42;;;;;;;4.57;2.80;;;13.40;64.00;;;;;;4985833;28;20209;-74
2022/04/03 08:00:13;;;;;;;6.40;3.10;;;13.40;64.20;;;;;;4985262;28;20208;-74
2022/04/03 08:02:43;;;;;;;4.87;2.70;;;13.40;63.20;;;;;;4987570;28;20701;-78
2022/04/03 08:05:12;;;;;;;6.70;3.07;;;13.30;64.00;;;;;;4986066;28;20232;-77
2022/04/03 08:07:43;;;;;;;6.30;2.60;;;13.40;64.30;;;;;;4986834;28;20208;-74
2022/04/03 08:10:13;;;;;;;8.93;2.93;;;13.50;64.60;;;;;;4988904;28;20670;-73
2022/04/03 08:12:43;;;;;;;5.77;3.13;;;13.50;63.90;;;;;;4987313;28;20197;-76
2022/04/03 08:15:15;;;;;;;4.40;2.67;;;13.50;63.50;;;;;;4985669;28;20250;-73
2022/04/03 08:17:44;;;;;;;4.87;2.70;;;13.50;64.40;;;;;;4987797;28;20197;-75
2022/04/03 08:20:16;;;;;;;5.50;2.70;;;13.60;63.70;;;;;;4986256;28;20667;-75
2022/04/03 08:22:46;;;;;;;10.43;3.40;;;13.60;63.00;;;;;;4985882;28;20188;-77
2022/04/03 08:25:15;;;;;;;6.80;3.40;;;13.60;63.50;;;;;;4987860;28;20223;-74
2022/04/03 08:27:45;;;;;;;5.87;2.40;;;13.60;64.10;;;;;;4987042;28;20695;-75
2022/04/03 08:30:17;;;;;;;5.70;2.60;;;13.60;63.30;;;;;;4986653;28;20203;-75
2022/04/03 08:32:46;;;;;;;3.97;2.53;;;13.70;63.20;;;;;;4986996;28;20300;-77
2022/04/03 08:35:15;;;;;;;5.20;2.43;;;13.70;62.00;;;;;;4988233;28;20201;-75
2022/04/03 08:37:44;;;;;;;4.27;2.40;;;13.70;60.80;;;;;;4987855;28;20193;-76
2022/04/03 08:40:19;;;;;;;5.43;2.30;;;13.70;60.20;;;;;;4987280;28;20198;-77
2022/04/03 08:42:47;;;;;;;7.73;2.70;;;13.70;60.20;;;;;;4989741;28;20193;-77
2022/04/03 08:45:17;;;;;;;6.30;2.50;;;13.70;60.90;;;;;;4987670;28;20847;-76
2022/04/03 08:47:48;;;;;;;5.80;2.37;;;13.70;60.70;;;;;;4987400;28;20200;-77
2022/04/03 08:50:17;;;;;;;5.03;2.30;;;13.80;60.00;;;;;;4988833;28;20200;-77
2022/04/03 08:52:48;;;;;;;5.77;2.50;;;13.80;60.50;;;;;;4987528;28;20221;-78
2022/04/03 08:55:21;;;;;;;7.70;2.40;;;13.90;60.20;;;;;;4987229;28;20201;-75
2022/04/03 08:57:54;;;;;;;5.07;2.80;;;14.00;59.20;;;;;;4990478;28;20275;-76
2022/04/03 09:00:24;;;;;;;7.07;3.00;;;14.00;58.70;;;;;;4988910;28;20201;-76
2022/04/03 09:02:53;;;;;;;5.47;2.60;;;14.00;58.00;;;;;;4988037;28;20200;-75
2022/04/03 09:05:21;;;;;;;4.80;2.70;;;14.00;58.50;;;;;;4988038;28;20193;-76
2022/04/03 09:08:10;;;;;;;5.07;2.67;;;14.10;58.40;;;;;;4989623;28;20197;-76
2022/04/03 09:10:41;;;;;;;8.93;3.33;;;14.10;58.80;;;;;;4985483;28;20208;-79
2022/04/03 09:13:10;;;;;;;7.87;3.97;;;14.20;58.90;;;;;;4988864;28;20697;-75
2022/04/03 09:15:40;;;;;;;8.40;3.40;;;14.20;58.40;;;;;;4988767;28;20204;-76
2022/04/03 09:18:08;;;;;;;6.10;3.17;;;14.20;58.30;;;;;;4988964;28;20216;-79
2022/04/03 09:20:37;;;;;;;6.63;3.63;;;14.20;57.90;;;;;;4990063;28;20232;-77
2022/04/03 09:23:08;;;;;;;7.37;4.37;;;14.20;58.40;;;;;;4991220;28;20184;-75
2022/04/03 09:25:37;;;;;;;6.20;3.50;;;14.20;58.20;;;;;;4987414;28;20201;-79
2022/04/03 09:28:07;;;;;;;6.83;3.80;;;14.30;58.60;;;;;;4990524;28;21437;-76
2022/04/03 09:30:38;;;;;;;9.53;3.70;;;14.30;58.40;;;;;;4988960;28;20473;-77
2022/04/03 09:33:13;;;;;;;12.40;4.43;;;14.30;58.20;;;;;;4987843;28;20729;-77
2022/04/03 09:35:55;;;;;;;6.97;3.90;;;14.40;57.40;;;;;;4988752;28;20211;-77
2022/04/03 09:38:24;;;;;;;7.43;4.40;;;14.40;58.10;;;;;;4987981;28;20208;-80
2022/04/03 09:40:53;;;;;;;9.17;3.17;;;14.40;58.00;;;;;;4986464;28;20582;-77
2022/04/03 09:43:23;;;;;;;7.50;3.90;;;14.50;57.80;;;;;;4987302;28;20569;-79
2022/04/03 09:45:56;;;;;;;10.27;4.17;;;14.40;57.50;;;;;;4988022;28;20217;-79
2022/04/03 09:48:28;;;;;;;8.30;3.67;;;14.50;58.10;;;;;;4987256;28;21579;-77
2022/04/03 09:50:59;;;;;;;7.10;3.77;;;14.50;58.10;;;;;;4986213;28;20197;-75
2022/04/03 09:53:28;;;;;;;6.20;3.63;;;14.60;58.10;;;;;;4985124;28;20252;-76
2022/04/03 09:55:57;;;;;;;7.50;3.87;;;14.60;58.00;;;;;;4987282;28;20197;-78
2022/04/03 09:58:25;;;;;;;7.40;3.70;;;14.60;57.60;;;;;;4986396;28;20816;-80
2022/04/03 10:00:54;;;;;;;11.30;3.47;;;14.60;57.40;;;;;;4984230;28;20870;-77
2022/04/03 10:03:26;;;;;;;6.10;3.43;;;14.70;56.70;;;;;;4983755;28;20247;-76
2022/04/03 10:05:54;;;;;;;11.20;3.67;;;14.70;56.70;;;;;;4986785;28;20190;-76
2022/04/03 10:08:24;;;;;;;6.70;2.87;;;14.80;57.10;;;;;;4988706;28;20205;-77
2022/04/03 10:10:55;;;;;;;8.07;3.30;;;14.80;57.10;;;;;;4991611;28;20200;-77
2022/04/03 10:13:28;;;;;;;6.13;2.70;;;14.80;56.50;;;;;;4989840;28;20212;-74
2022/04/03 10:15:56;;;;;;;4.50;2.50;;;14.90;54.30;;;;;;4986601;28;20189;-75
2022/04/03 10:18:26;;;;;;;5.40;2.30;;;14.90;54.20;;;;;;4987185;28;20196;-75
2022/04/03 10:20:58;;;;;;;6.33;2.70;;;15.00;54.10;;;;;;4986036;28;20235;-76
2022/04/03 10:23:29;;;;;;;5.30;2.30;;;15.00;54.30;;;;;;4987037;28;20202;-77
2022/04/03 10:25:59;;;;;;;8.93;2.67;;;15.10;53.90;;;;;;4987374;28;20197;-79
2022/04/03 10:28:28;;;;;;;6.27;2.63;;;15.10;53.70;;;;;;4986781;28;20211;-77
2022/04/03 10:31:01;;;;;;;7.57;3.00;;;15.10;53.90;;;;;;4989529;28;20200;-77
2022/04/03 10:33:39;;;;;;;5.90;2.67;;;15.10;54.10;;;;;;4989207;28;20221;-77
2022/04/03 10:36:11;;;;;;;5.17;2.73;;;15.20;54.50;;;;;;4988804;28;20227;-76
2022/04/03 10:38:43;;;;;;;5.60;2.63;;;15.30;54.40;;;;;;4990892;28;20219;-78
2022/04/03 10:41:27;;;;;;;8.93;3.13;;;15.40;54.80;;;;;;4990934;28;20196;-77
2022/04/03 10:44:14;;;;;;;7.90;2.67;;;15.50;54.80;;;;;;4989544;28;20196;-79
2022/04/03 10:47:22;;;;;;;5.67;2.93;;;15.50;53.80;;;;;;4989158;28;20204;-77
2022/04/03 10:50:02;;;;;;;5.60;2.30;;;15.60;54.00;;;;;;4988883;28;20595;-80
2022/04/03 10:52:59;;;;;;;7.87;2.90;;;15.70;54.20;;;;;;4990586;28;20599;-80
2022/04/03 10:55:30;;;;;;;4.40;3.00;;;15.80;54.30;;;;;;4989487;28;20267;-77
2022/04/03 10:58:03;;;;;;;6.20;2.83;;;15.80;53.30;;;;;;4990605;28;21197;-77
2022/04/03 11:00:37;;;;;;;9.77;3.50;;;15.90;53.20;;;;;;4991611;28;20201;-76
2022/04/03 11:03:37;;;;;;;5.97;2.10;;;16.00;52.90;;;;;;4990252;28;20192;-75
2022/04/03 11:06:27;;;;;;;9.30;3.17;;;16.10;52.50;;;;;;4990126;28;20210;-75
2022/04/03 11:09:04;;;;;;;6.17;2.40;;;16.10;52.90;;;;;;4989487;28;20204;-77
2022/04/03 11:11:41;;;;;;;6.53;2.97;;;16.20;51.60;;;;;;4989608;28;20197;-77
2022/04/03 11:14:10;;;;;;;4.53;2.60;;;16.20;50.30;;;;;;4990304;28;20208;-78
2022/04/03 11:16:51;;;;;;;4.90;2.23;;;16.20;50.20;;;;;;4989489;28;20642;-76
2022/04/03 11:19:42;;;;;;;7.90;2.27;;;16.20;49.20;;;;;;4988588;28;20941;-74
2022/04/03 11:22:18;;;;;;;4.97;2.20;;;16.20;48.60;;;;;;4988865;28;20283;-76
2022/04/03 11:24:46;;;;;;;7.03;2.63;;;16.20;49.30;;;;;;4988965;28;20678;-75
2022/04/03 11:27:15;;;;;;;8.50;2.80;;;16.10;49.80;;;;;;4989097;28;20207;-75
2022/04/03 11:29:43;;;;;;;7.80;2.50;;;16.20;49.30;;;;;;4988742;28;20204;-73
2022/04/03 11:32:13;;;;;;;7.23;2.50;;;16.30;49.60;;;;;;4989058;28;20227;-75
2022/04/03 11:34:41;;;;;;;5.17;1.80;;;16.30;48.10;;;;;;4989112;28;20193;-77
2022/04/03 11:37:13;;;;;;;9.13;2.40;;;16.30;48.00;;;;;;4989067;28;20224;-77
2022/04/03 11:39:42;;;;;;;4.40;1.60;;;16.30;46.40;;;;;;4989885;28;20192;-78
2022/04/03 11:42:11;;;;;;;6.00;2.13;;;16.40;46.30;;;;;;4988161;28;20205;-76
2022/04/03 11:44:41;;;;;;;4.70;2.40;;;16.40;46.00;;;;;;4988692;28;20193;-78
2022/04/03 11:47:21;;;;;;;5.80;2.10;;;16.40;46.60;;;;;;4986006;28;20242;-79
2022/04/03 11:50:06;;;;;;;4.30;2.23;;;16.40;47.10;;;;;;4988284;28;20200;-75
2022/04/03 11:52:37;;;;;;;6.20;3.00;;;16.50;46.90;;;;;;4985720;28;20212;-77
2022/04/03 11:55:12;;;;;;;7.97;2.70;;;16.50;47.00;;;;;;4987433;28;20204;-75
2022/04/03 11:57:40;;;;;;;5.60;3.17;;;16.60;47.70;;;;;;4986763;28;20593;-77
2022/04/03 12:00:11;;;;;;;7.50;2.93;;;16.60;48.00;;;;;;4986651;28;21621;-77
2022/04/03 12:02:43;;;;;;;6.60;2.80;;;16.60;47.90;;;;;;4986941;28;20737;-76
2022/04/03 12:05:11;;;;;;;3.73;1.97;;;16.60;48.40;;;;;;4986862;28;20228;-74
2022/04/03 12:07:40;;;;;;;5.63;2.03;;;16.70;48.40;;;;;;4989081;28;20197;-76
2022/04/03 12:10:10;;;;;;;9.27;2.43;;;16.80;47.50;;;;;;4987028;28;20205;-75
2022/04/03 12:12:39;;;;;;;6.37;2.70;;;16.90;47.20;;;;;;4986682;28;20235;-75
2022/04/03 12:15:13;;;;;;;9.40;2.80;;;16.90;47.10;;;;;;4986318;28;20767;-76
2022/04/03 12:17:43;;;;;;;6.50;2.40;;;17.00;46.70;;;;;;4986785;28;20223;-76
2022/04/03 12:20:13;;;;;;;6.00;2.40;;;17.00;46.90;;;;;;4986488;28;20205;-77
2022/04/03 12:22:43;;;;;;;6.57;1.90;;;16.80;45.60;;;;;;4988633;28;20197;-75
2022/04/03 12:25:13;;;;;;;10.40;2.70;;;16.70;45.40;;;;;;4986877;28;20205;-78
2022/04/03 12:27:41;;;;;;;5.23;2.37;;;16.80;45.70;;;;;;4987170;28;20204;-77
2022/04/03 12:30:12;;;;;;;5.10;1.77;;;16.80;45.90;;;;;;4987384;28;20206;-75
2022/04/03 12:32:41;;;;;;;4.60;2.23;;;16.90;45.20;;;;;;4986073;28;20205;-75
2022/04/03 12:35:14;;;;;;;5.77;2.30;;;17.00;44.70;;;;;;4987990;28;20205;-74
2022/04/03 12:37:44;;;;;;;4.23;2.10;;;16.90;44.80;;;;;;4985790;28;20709;-76
2022/04/03 12:40:25;;;;;;;11.00;3.20;;;16.90;45.60;;;;;;4985098;28;21187;-76
2022/04/03 12:43:04;;;;;;;8.03;3.20;;;16.90;46.80;;;;;;4952340;28;21617;-76
2022/04/03 12:45:32;;;;;;;6.80;3.17;;;16.80;47.10;;;;;;4985500;28;20197;-75
2022/04/03 12:48:03;;;;;;;8.73;2.83;;;16.70;46.80;;;;;;4984905;28;20570;-72
2022/04/03 12:50:38;;;;;;;7.47;3.33;;;16.80;47.30;;;;;;4986783;28;20251;-75
2022/04/03 12:53:12;;;;;;;8.57;3.20;;;16.90;47.10;;;;;;4985515;28;20211;-76
2022/04/03 12:55:48;;;;;;;6.97;3.10;;;17.00;46.60;;;;;;4986963;28;20201;-75
2022/04/03 12:58:33;;;;;;;7.50;3.00;;;17.10;45.70;;;;;;4986570;28;20207;-74
2022/04/03 13:01:09;;;;;;;5.40;2.67;;;17.20;45.40;;;;;;4986768;28;20203;-74
2022/04/03 13:03:40;;;;;;;17.20;3.03;;;17.20;45.60;;;;;;4986395;28;20216;-75
2022/04/03 13:06:10;;;;;;;6.33;3.23;;;17.30;45.50;;;;;;4986461;28;20201;-76
2022/04/03 13:08:52;;;;;;;12.73;4.37;;;17.40;45.30;;;;;;4985565;28;20185;-75